sensor_id;sensor_type;location;lat;lon;timestamp;pressure;altitude;pressure_sealevel;temperature;humidity
12073;BME280;6098;49.004;8.372;2024-01-11T00:02:45;101509.59;;;-1.83;70.69
12073;BME280;6098;49.004;8.372;2024-01-11T00:17:35;101513.97;;;-1.96;71.80
12073;BME280;6098;49.004;8.372;2024-01-11T00:32:25;101521.09;;;-2.04;72.16
12073;BME280;6098;49.004;8.372;2024-01-11T00:47:19;101512.17;;;-2.13;72.42
12073;BME280;6098;49.004;8.372;2024-01-11T01:02:11;101524.73;;;-2.26;73.16
12073;BME280;6098;49.004;8.372;2024-01-11T01:17:01;101515.84;;;-2.34;73.55
12073;BME280;6098;49.004;8.372;2024-01-11T01:31:51;101521.08;;;-2.33;73.83
12073;BME280;6098;49.004;8.372;2024-01-11T01:46:39;101540.97;;;-2.46;74.67
12073;BME280;6098;49.004;8.372;2024-01-11T02:01:28;101559.05;;;-2.49;75.53
12073;BME280;6098;49.004;8.372;2024-01-11T02:16:21;101554.76;;;-2.48;76.03
12073;BME280;6098;49.004;8.372;2024-01-11T02:31:10;101555.95;;;-2.64;76.59
12073;BME280;6098;49.004;8.372;2024-01-11T02:45:59;101546.09;;;-2.75;77.08
12073;BME280;6098;49.004;8.372;2024-01-11T03:00:48;101541.45;;;-2.84;77.78
12073;BME280;6098;49.004;8.372;2024-01-11T03:15:37;101534.45;;;-2.99;78.18
12073;BME280;6098;49.004;8.372;2024-01-11T03:30:28;101528.59;;;-2.93;78.23
12073;BME280;6098;49.004;8.372;2024-01-11T03:45:18;101534.77;;;-3.02;77.69
12073;BME280;6098;49.004;8.372;2024-01-11T04:00:13;101529.13;;;-2.91;77.32
12073;BME280;6098;49.004;8.372;2024-01-11T04:30:01;101522.23;;;-2.90;77.13
12073;BME280;6098;49.004;8.372;2024-01-11T04:44:51;101521.88;;;-3.01;77.31
12073;BME280;6098;49.004;8.372;2024-01-11T04:59:40;101536.90;;;-2.91;77.54
12073;BME280;6098;49.004;8.372;2024-01-11T05:14:30;101547.27;;;-2.91;76.82
12073;BME280;6098;49.004;8.372;2024-01-11T05:29:19;101556.33;;;-3.04;77.12
12073;BME280;6098;49.004;8.372;2024-01-11T05:44:09;101569.83;;;-3.01;76.80
12073;BME280;6098;49.004;8.372;2024-01-11T05:58:59;101567.45;;;-2.95;76.54
12073;BME280;6098;49.004;8.372;2024-01-11T06:13:50;101575.09;;;-2.99;76.68
12073;BME280;6098;49.004;8.372;2024-01-11T06:28:41;101585.13;;;-2.96;76.88
12073;BME280;6098;49.004;8.372;2024-01-11T06:43:30;101592.28;;;-3.14;77.02
12073;BME280;6098;49.004;8.372;2024-01-11T06:58:21;101606.98;;;-3.13;77.56
12073;BME280;6098;49.004;8.372;2024-01-11T07:13:11;101634.70;;;-3.12;77.55
12073;BME280;6098;49.004;8.372;2024-01-11T07:28:01;101651.28;;;-3.19;77.95
12073;BME280;6098;49.004;8.372;2024-01-11T07:42:50;101672.94;;;-3.30;79.74
12073;BME280;6098;49.004;8.372;2024-01-11T07:57:42;101691.69;;;-3.25;80.92
12073;BME280;6098;49.004;8.372;2024-01-11T08:12:35;101715.30;;;-3.18;81.47
12073;BME280;6098;49.004;8.372;2024-01-11T08:27:24;101722.08;;;-3.10;81.83
12073;BME280;6098;49.004;8.372;2024-01-11T08:42:15;101710.70;;;-2.91;80.58
12073;BME280;6098;49.004;8.372;2024-01-11T08:57:12;101715.12;;;-2.64;79.32
12073;BME280;6098;49.004;8.372;2024-01-11T09:12:04;101706.34;;;-2.44;77.89
12073;BME280;6098;49.004;8.372;2024-01-11T09:26:56;101715.23;;;-2.24;76.20
12073;BME280;6098;49.004;8.372;2024-01-11T09:41:50;101727.47;;;-1.83;74.56
12073;BME280;6098;49.004;8.372;2024-01-11T09:56:36;101738.00;;;-1.66;72.95
12073;BME280;6098;49.004;8.372;2024-01-11T10:11:27;101712.66;;;-1.30;71.68
12073;BME280;6098;49.004;8.372;2024-01-11T10:26:18;101701.27;;;-1.05;69.27
12073;BME280;6098;49.004;8.372;2024-01-11T10:41:09;101706.25;;;-0.68;68.56
12073;BME280;6098;49.004;8.372;2024-01-11T10:56:01;101713.24;;;-0.34;67.52
12073;BME280;6098;49.004;8.372;2024-01-11T11:10:56;101692.07;;;-0.13;67.30
12073;BME280;6098;49.004;8.372;2024-01-11T11:25:49;101692.16;;;0.07;66.63
12073;BME280;6098;49.004;8.372;2024-01-11T11:40:41;101674.25;;;0.39;65.93
12073;BME280;6098;49.004;8.372;2024-01-11T11:55:33;101658.08;;;0.75;65.03
12073;BME280;6098;49.004;8.372;2024-01-11T12:10:24;101633.94;;;1.06;63.90
12073;BME280;6098;49.004;8.372;2024-01-11T12:25:15;101620.50;;;1.31;62.92
12073;BME280;6098;49.004;8.372;2024-01-11T12:40:07;101612.30;;;1.62;62.04
12073;BME280;6098;49.004;8.372;2024-01-11T12:55:00;101598.05;;;1.95;60.97
12073;BME280;6098;49.004;8.372;2024-01-11T13:09:51;101598.38;;;2.17;60.50
12073;BME280;6098;49.004;8.372;2024-01-11T13:24:41;101592.67;;;2.13;61.07
12073;BME280;6098;49.004;8.372;2024-01-11T13:39:32;101612.36;;;2.18;60.78
12073;BME280;6098;49.004;8.372;2024-01-11T13:54:22;101614.36;;;2.06;61.40
12073;BME280;6098;49.004;8.372;2024-01-11T14:09:13;101648.55;;;1.92;62.11
12073;BME280;6098;49.004;8.372;2024-01-11T14:24:04;101650.36;;;1.70;62.24
12073;BME280;6098;49.004;8.372;2024-01-11T14:38:55;101653.44;;;1.72;62.17
12073;BME280;6098;49.004;8.372;2024-01-11T14:53:46;101663.39;;;1.67;62.21
12073;BME280;6098;49.004;8.372;2024-01-11T15:08:36;101666.00;;;1.67;62.13
12073;BME280;6098;49.004;8.372;2024-01-11T15:23:27;101674.00;;;1.53;62.61
12073;BME280;6098;49.004;8.372;2024-01-11T15:38:18;101677.24;;;1.40;63.00
12073;BME280;6098;49.004;8.372;2024-01-11T15:53:09;101694.54;;;1.34;63.49
12073;BME280;6098;49.004;8.372;2024-01-11T16:07:59;101701.79;;;1.26;64.44
12073;BME280;6098;49.004;8.372;2024-01-11T16:22:50;101717.17;;;1.13;65.14
12073;BME280;6098;49.004;8.372;2024-01-11T16:37:41;101730.20;;;1.11;65.66
12073;BME280;6098;49.004;8.372;2024-01-11T16:52:31;101724.29;;;1.00;66.27
12073;BME280;6098;49.004;8.372;2024-01-11T17:07:21;101713.33;;;0.95;66.76
12073;BME280;6098;49.004;8.372;2024-01-11T17:22:12;101728.43;;;0.90;67.10
12073;BME280;6098;49.004;8.372;2024-01-11T17:37:04;101742.31;;;0.88;67.46
12073;BME280;6098;49.004;8.372;2024-01-11T17:51:55;101739.01;;;0.76;67.77
12073;BME280;6098;49.004;8.372;2024-01-11T18:06:46;101741.06;;;0.71;68.02
12073;BME280;6098;49.004;8.372;2024-01-11T18:21:50;101766.23;;;0.69;68.11
12073;BME280;6098;49.004;8.372;2024-01-11T18:36:43;101756.95;;;0.62;67.94
12073;BME280;6098;49.004;8.372;2024-01-11T18:51:39;101772.64;;;0.63;68.24
12073;BME280;6098;49.004;8.372;2024-01-11T19:06:49;101753.30;;;0.55;68.16
12073;BME280;6098;49.004;8.372;2024-01-11T19:21:39;101749.45;;;0.58;68.44
12073;BME280;6098;49.004;8.372;2024-01-11T19:36:30;101757.12;;;0.52;69.39
12073;BME280;6098;49.004;8.372;2024-01-11T19:51:33;101764.35;;;0.45;70.48
12073;BME280;6098;49.004;8.372;2024-01-11T20:06:22;101766.58;;;0.47;70.37
12073;BME280;6098;49.004;8.372;2024-01-11T20:21:12;101777.18;;;0.35;70.79
12073;BME280;6098;49.004;8.372;2024-01-11T20:36:02;101777.81;;;0.26;71.46
12073;BME280;6098;49.004;8.372;2024-01-11T20:50:53;101792.45;;;0.05;72.67
12073;BME280;6098;49.004;8.372;2024-01-11T21:05:54;101793.19;;;-0.01;72.66
12073;BME280;6098;49.004;8.372;2024-01-11T21:20:46;101794.93;;;0.00;72.04
12073;BME280;6098;49.004;8.372;2024-01-11T21:35:53;101785.53;;;0.06;71.31
12073;BME280;6098;49.004;8.372;2024-01-11T21:50:43;101780.86;;;0.10;70.90
12073;BME280;6098;49.004;8.372;2024-01-11T22:05:47;101775.89;;;0.03;71.17
12073;BME280;6098;49.004;8.372;2024-01-11T22:20:40;101768.05;;;-0.15;72.51
12073;BME280;6098;49.004;8.372;2024-01-11T22:35:42;101772.44;;;-0.28;72.87
12073;BME280;6098;49.004;8.372;2024-01-11T22:50:32;101777.95;;;-0.33;72.86
12073;BME280;6098;49.004;8.372;2024-01-11T23:05:24;101780.37;;;-0.56;74.12
12073;BME280;6098;49.004;8.372;2024-01-11T23:20:16;101794.30;;;-0.39;70.86
12073;BME280;6098;49.004;8.372;2024-01-11T23:35:18;101795.71;;;-0.35;70.07
12073;BME280;6098;49.004;8.372;2024-01-11T23:50:10;101793.46;;;-0.53;70.13
